Time;durP1;ratioP1;P1;durP2;ratioP2;P2;SDS_P1;SDS_P2;PMS_P1;PMS_P2;Temp;Humidity;BMP_temperature;BMP_pressure;BME280_temperature;BME280_humidity;BME280_pressure;Samples;Min_cycle;Max_cycle;Signal;HPM_P1;HPM_P2
2022/04/14 00:01:33;;;;;;;33.45;20.40;;;11.20;99.90;;;;;;4953439;28;20047;-59
2022/04/14 00:03:58;;;;;;;34.67;20.40;;;11.20;99.90;;;;;;4952824;28;20050;-60
2022/04/14 00:06:24;;;;;;;39.97;21.33;;;11.20;99.90;;;;;;4945142;28;20043;-60
2022/04/14 00:08:52;;;;;;;34.90;18.92;;;11.10;99.90;;;;;;4952959;28;20421;-60
2022/04/14 00:11:21;;;;;;;31.38;20.42;;;11.20;99.90;;;;;;4952351;29;20584;-60
2022/04/14 00:13:46;;;;;;;38.60;19.75;;;11.10;99.90;;;;;;4940007;28;20485;-59
2022/04/14 00:16:12;;;;;;;31.13;18.33;;;11.10;99.90;;;;;;4945860;28;20043;-60
2022/04/14 00:18:38;;;;;;;30.00;18.38;;;11.10;99.90;;;;;;4953328;28;20047;-60
2022/04/14 00:21:03;;;;;;;33.08;18.08;;;11.00;99.90;;;;;;4953493;28;20031;-60
2022/04/14 00:23:29;;;;;;;26.98;17.58;;;11.00;99.90;;;;;;4947466;28;20504;-60
2022/04/14 00:25:54;;;;;;;29.70;18.38;;;11.00;99.90;;;;;;4951878;28;20079;-60
2022/04/14 00:28:20;;;;;;;31.83;17.80;;;11.00;99.90;;;;;;4953278;28;20047;-59
2022/04/14 00:30:46;;;;;;;32.88;18.23;;;11.00;99.90;;;;;;4934756;28;20122;-60
2022/04/14 00:33:11;;;;;;;28.95;17.73;;;11.00;99.90;;;;;;4946477;28;20070;-60
2022/04/14 00:35:37;;;;;;;30.27;18.60;;;10.90;99.90;;;;;;4953131;28;20093;-60
2022/04/14 00:38:03;;;;;;;28.15;18.13;;;10.90;99.90;;;;;;4950484;28;20096;-60
2022/04/14 00:40:28;;;;;;;28.13;18.27;;;10.90;99.90;;;;;;4952320;28;20109;-60
2022/04/14 00:42:54;;;;;;;33.22;19.05;;;10.80;99.90;;;;;;4952039;28;20086;-59
2022/04/14 00:45:19;;;;;;;32.78;20.17;;;10.80;99.90;;;;;;4953212;28;20098;-59
2022/04/14 00:47:45;;;;;;;28.98;17.13;;;10.80;99.90;;;;;;4933762;28;20039;-60
2022/04/14 00:50:13;;;;;;;26.92;17.42;;;10.70;99.90;;;;;;4952098;28;20046;-60
2022/04/14 00:52:46;;;;;;;26.70;16.67;;;10.60;99.90;;;;;;4951770;28;20046;-60
2022/04/14 00:55:15;;;;;;;23.30;15.57;;;10.50;99.90;;;;;;4946906;28;20074;-61
2022/04/14 00:57:43;;;;;;;28.10;17.60;;;10.40;99.90;;;;;;4952414;28;20048;-60
2022/04/14 01:00:09;;;;;;;25.67;17.15;;;10.30;99.90;;;;;;4952658;28;20568;-60
2022/04/14 01:02:35;;;;;;;30.42;18.13;;;10.30;99.90;;;;;;4953131;28;20035;-60
2022/04/14 01:05:02;;;;;;;35.67;19.65;;;10.30;99.90;;;;;;4937443;28;20090;-60
2022/04/14 01:07:29;;;;;;;33.47;20.67;;;10.30;99.90;;;;;;4949361;28;20491;-59
2022/04/14 01:09:56;;;;;;;38.72;20.77;;;10.30;99.90;;;;;;4952675;28;20039;-60
2022/04/14 01:12:23;;;;;;;35.28;21.67;;;10.30;99.90;;;;;;4949163;28;20039;-61
2022/04/14 01:14:49;;;;;;;33.55;20.38;;;10.30;99.90;;;;;;4951882;28;20043;-60
2022/04/14 01:17:14;;;;;;;35.35;20.38;;;10.30;99.90;;;;;;4954733;28;20049;-61
2022/04/14 01:19:41;;;;;;;33.63;21.08;;;10.30;99.90;;;;;;4956534;28;20047;-60
2022/04/14 01:22:23;;;;;;;35.15;21.33;;;10.30;99.90;;;;;;4936125;29;20028;-61
2022/04/14 01:24:51;;;;;;;33.45;20.38;;;10.20;99.90;;;;;;4955867;28;20036;-60
2022/04/14 01:27:16;;;;;;;37.38;20.02;;;10.20;99.90;;;;;;4956646;28;20047;-60
2022/04/14 01:29:42;;;;;;;31.70;18.88;;;10.10;99.90;;;;;;4951374;28;20401;-60
2022/04/14 01:32:08;;;;;;;29.77;19.45;;;10.10;99.90;;;;;;4948762;28;20490;-60
2022/04/14 01:34:34;;;;;;;32.92;18.92;;;10.10;99.90;;;;;;4954057;28;20100;-60
2022/04/14 01:37:00;;;;;;;33.58;20.45;;;10.00;99.90;;;;;;4950365;28;20110;-60
2022/04/14 01:39:27;;;;;;;35.17;20.77;;;10.00;99.90;;;;;;4955230;28;20039;-60
2022/04/14 01:41:53;;;;;;;33.03;19.23;;;10.00;99.90;;;;;;4955664;28;20409;-60
2022/04/14 01:44:18;;;;;;;28.20;18.98;;;9.90;99.90;;;;;;4955794;28;20045;-59
2022/04/14 01:46:44;;;;;;;29.55;18.10;;;9.90;99.90;;;;;;4945278;28;20043;-60
2022/04/14 01:49:10;;;;;;;29.10;19.65;;;9.90;99.90;;;;;;4955574;28;20127;-60
2022/04/14 01:51:36;;;;;;;31.60;19.70;;;9.80;99.90;;;;;;4963706;28;20050;-60
2022/04/14 01:54:03;;;;;;;26.30;17.55;;;9.80;99.90;;;;;;4951030;28;20035;-59
2022/04/14 01:56:29;;;;;;;32.13;18.98;;;9.70;99.90;;;;;;4948132;28;20074;-60
2022/04/14 01:58:54;;;;;;;33.88;20.83;;;9.70;99.90;;;;;;4955494;28;20043;-60
2022/04/14 02:01:20;;;;;;;34.78;21.13;;;9.70;99.90;;;;;;4954585;29;20518;-61
2022/04/14 02:03:46;;;;;;;38.10;22.58;;;9.60;99.90;;;;;;4944176;28;20050;-59
2022/04/14 02:06:13;;;;;;;38.08;23.05;;;9.60;99.90;;;;;;4955038;28;20046;-61
2022/04/14 02:08:38;;;;;;;43.28;22.98;;;9.60;99.90;;;;;;4955504;28;20035;-60
2022/04/14 02:11:06;;;;;;;39.30;20.88;;;9.70;99.90;;;;;;4946641;28;20058;-60
2022/04/14 02:13:33;;;;;;;60.58;27.95;;;9.60;99.90;;;;;;4944877;28;20558;-60
2022/04/14 02:15:59;;;;;;;76.50;28.10;;;9.70;99.90;;;;;;4955117;28;20047;-61
2022/04/14 02:18:25;;;;;;;510.17;32.97;;;9.70;99.90;;;;;;4955331;28;20043;-61
2022/04/14 02:20:51;;;;;;;394.25;31.13;;;9.70;99.90;;;;;;4944064;28;20514;-61
2022/04/14 02:23:16;;;;;;;677.53;32.95;;;9.80;99.90;;;;;;4949371;28;20054;-60
2022/04/14 02:25:42;;;;;;;512.42;27.80;;;9.70;99.90;;;;;;4955114;28;20039;-60
2022/04/14 02:28:08;;;;;;;575.63;36.67;;;9.70;99.90;;;;;;4942789;28;20039;-60
2022/04/14 02:30:33;;;;;;;216.00;31.60;;;9.80;99.90;;;;;;4954117;28;20054;-60
2022/04/14 02:33:00;;;;;;;852.25;49.05;;;9.80;99.90;;;;;;4954404;28;20038;-60
2022/04/14 02:35:26;;;;;;;632.38;41.78;;;9.90;99.90;;;;;;4950030;28;20039;-60
2022/04/14 02:37:51;;;;;;;720.90;46.75;;;9.90;99.90;;;;;;4945900;28;20051;-60
2022/04/14 02:40:18;;;;;;;484.38;39.95;;;9.90;99.90;;;;;;4954733;28;20046;-61
2022/04/14 02:42:44;;;;;;;420.58;38.47;;;10.00;99.90;;;;;;4954738;28;20113;-61
2022/04/14 02:45:09;;;;;;;288.75;37.05;;;10.00;99.90;;;;;;4947989;28;20506;-60
2022/04/14 02:47:35;;;;;;;591.10;40.83;;;10.00;99.90;;;;;;4949746;29;20379;-60
2022/04/14 02:50:02;;;;;;;393.10;38.72;;;10.00;99.90;;;;;;4918498;29;20112;-60
2022/04/14 02:52:29;;;;;;;532.17;40.42;;;10.00;99.90;;;;;;4935030;28;20039;-60
2022/04/14 02:54:54;;;;;;;636.53;45.22;;;10.00;99.90;;;;;;4946462;28;20622;-60
2022/04/14 02:57:20;;;;;;;302.42;34.50;;;10.10;99.90;;;;;;4954515;28;20039;-60
2022/04/14 02:59:45;;;;;;;73.78;31.83;;;10.00;99.90;;;;;;4941241;28;20143;-60
2022/04/14 03:02:11;;;;;;;129.88;31.42;;;10.00;99.90;;;;;;4940180;28;20131;-59
2022/04/14 03:04:36;;;;;;;65.85;33.88;;;10.00;99.90;;;;;;4950738;28;20118;-60
2022/04/14 03:07:02;;;;;;;80.15;33.58;;;10.00;99.90;;;;;;4954684;28;20064;-61
2022/04/14 03:09:28;;;;;;;69.30;32.05;;;10.00;99.90;;;;;;4949498;28;20110;-61
2022/04/14 03:11:53;;;;;;;79.97;31.35;;;10.00;99.90;;;;;;4948036;28;20121;-61
2022/04/14 03:14:19;;;;;;;127.57;33.50;;;10.00;99.90;;;;;;4952871;28;20121;-61
2022/04/14 03:16:44;;;;;;;148.98;34.17;;;10.00;99.90;;;;;;4950987;28;20051;-60
2022/04/14 03:19:10;;;;;;;255.70;35.40;;;10.00;99.90;;;;;;4952488;28;20050;-61
2022/04/14 03:21:35;;;;;;;271.85;35.17;;;9.90;99.90;;;;;;4953975;28;20039;-60
2022/04/14 03:24:01;;;;;;;435.02;37.10;;;9.90;99.90;;;;;;4973382;23;20085;-60
2022/04/14 03:26:26;;;;;;;486.85;41.97;;;9.90;99.90;;;;;;4964129;28;20051;-60
2022/04/14 03:28:52;;;;;;;902.75;43.70;;;9.90;99.90;;;;;;4971479;28;20038;-61
2022/04/14 03:31:17;;;;;;;1030.55;50.20;;;9.80;99.90;;;;;;4967731;28;20035;-59
2022/04/14 03:33:43;;;;;;;622.60;37.20;;;9.70;99.90;;;;;;4958691;28;20054;-60
2022/04/14 03:36:09;;;;;;;710.17;35.63;;;9.60;99.90;;;;;;4956737;28;20043;-60
2022/04/14 03:38:34;;;;;;;498.23;33.35;;;9.50;99.90;;;;;;4952312;28;20039;-60
2022/04/14 03:41:02;;;;;;;354.10;32.92;;;9.40;99.90;;;;;;4953787;29;20457;-60
2022/04/14 03:43:28;;;;;;;644.95;38.88;;;9.30;99.90;;;;;;4951089;28;20114;-61
2022/04/14 03:45:54;;;;;;;459.35;37.00;;;9.20;99.90;;;;;;4952853;28;20513;-60
2022/04/14 03:48:19;;;;;;;410.38;40.65;;;9.30;99.90;;;;;;4953263;28;20446;-61
2022/04/14 03:50:45;;;;;;;360.42;41.72;;;9.30;99.90;;;;;;4954632;28;20045;-60
2022/04/14 03:53:10;;;;;;;331.88;44.20;;;9.30;99.90;;;;;;4958398;28;20552;-60
2022/04/14 03:55:36;;;;;;;675.60;53.33;;;9.40;99.90;;;;;;4953491;28;20039;-60
2022/04/14 03:58:01;;;;;;;814.90;55.45;;;9.40;99.90;;;;;;4953728;29;20405;-60
2022/04/14 04:00:27;;;;;;;841.28;53.38;;;9.40;99.90;;;;;;4952547;28;20540;-59
2022/04/14 04:02:53;;;;;;;900.90;55.17;;;9.30;99.90;;;;;;4950226;28;20556;-60
2022/04/14 04:05:18;;;;;;;745.17;48.72;;;9.20;99.90;;;;;;4962620;28;20043;-60
2022/04/14 04:07:44;;;;;;;622.83;42.53;;;9.20;99.90;;;;;;4950083;28;20051;-60
2022/04/14 04:10:09;;;;;;;600.38;42.55;;;9.10;99.90;;;;;;4951029;28;20106;-60
2022/04/14 04:12:35;;;;;;;640.20;44.40;;;9.10;99.90;;;;;;4953067;28;20044;-60
2022/04/14 04:15:00;;;;;;;716.08;47.92;;;9.00;99.90;;;;;;4953353;29;20043;-60
2022/04/14 04:17:26;;;;;;;785.50;54.33;;;9.00;99.90;;;;;;4953137;28;20035;-61
2022/04/14 04:19:52;;;;;;;585.17;40.65;;;9.00;99.90;;;;;;4952989;28;20118;-60
2022/04/14 04:22:17;;;;;;;614.30;37.35;;;8.90;99.90;;;;;;4953602;29;20390;-60
2022/04/14 04:24:43;;;;;;;710.35;41.53;;;8.90;99.90;;;;;;4953747;28;20042;-61
2022/04/14 04:27:08;;;;;;;873.15;46.47;;;8.80;99.90;;;;;;4952871;28;20090;-60
2022/04/14 04:29:34;;;;;;;851.75;43.47;;;8.80;99.90;;;;;;4953188;28;20129;-60
2022/04/14 04:32:00;;;;;;;953.33;54.42;;;8.70;99.90;;;;;;4951561;28;20044;-60
2022/04/14 04:34:26;;;;;;;828.95;55.72;;;8.70;99.90;;;;;;4966247;28;20047;-60
2022/04/14 04:36:52;;;;;;;718.80;49.50;;;8.80;99.90;;;;;;4953996;28;20054;-60
2022/04/14 04:39:17;;;;;;;799.97;50.65;;;8.90;99.90;;;;;;4953339;29;20035;-61
2022/04/14 04:41:43;;;;;;;819.70;50.63;;;8.80;99.90;;;;;;4951081;28;20568;-61
2022/04/14 04:44:09;;;;;;;590.80;40.22;;;8.80;99.90;;;;;;4952461;28;20447;-62
2022/04/14 04:46:35;;;;;;;611.80;42.58;;;8.60;99.90;;;;;;4952885;28;20126;-60
2022/04/14 04:49:00;;;;;;;640.45;39.80;;;8.60;99.90;;;;;;4953261;28;20179;-60
2022/04/14 04:51:26;;;;;;;930.60;55.80;;;8.50;99.90;;;;;;4971107;28;20041;-60
2022/04/14 04:53:52;;;;;;;584.85;43.80;;;8.50;99.90;;;;;;4973833;28;20516;-60
2022/04/14 04:56:18;;;;;;;851.28;51.65;;;8.50;99.90;;;;;;4972677;28;20044;-60
2022/04/14 04:58:45;;;;;;;807.63;44.13;;;8.50;99.90;;;;;;4956699;28;20050;-60
2022/04/14 05:01:10;;;;;;;655.33;44.25;;;8.40;99.90;;;;;;4956034;28;20498;-60
2022/04/14 05:03:36;;;;;;;700.45;54.42;;;8.40;99.90;;;;;;4956624;29;20051;-59
2022/04/14 05:06:02;;;;;;;453.52;43.05;;;8.40;99.90;;;;;;4954371;29;20055;-60
2022/04/14 05:08:30;;;;;;;495.38;49.28;;;8.50;99.90;;;;;;4953522;28;20049;-60
2022/04/14 05:10:56;;;;;;;395.13;47.40;;;8.50;99.90;;;;;;4953109;28;20039;-60
2022/04/14 05:13:21;;;;;;;516.55;49.20;;;8.50;99.90;;;;;;4950450;28;20087;-60
2022/04/14 05:15:47;;;;;;;342.85;40.45;;;8.50;99.90;;;;;;4957521;28;20752;-59
2022/04/14 05:18:12;;;;;;;377.05;38.72;;;8.50;99.90;;;;;;4953220;28;20043;-54
2022/04/14 05:20:40;;;;;;;405.60;40.25;;;8.40;99.90;;;;;;4953957;29;20144;-57
2022/04/14 05:23:11;;;;;;;426.45;43.88;;;8.30;99.90;;;;;;4955906;28;20039;-59
2022/04/14 05:25:40;;;;;;;;;;;8.40;99.90;;;;;;4964639;28;20153;-60
2022/04/14 05:28:06;;;;;;;475.27;45.47;;;8.40;99.90;;;;;;4967456;28;20441;-57
2022/04/14 05:30:32;;;;;;;399.75;38.60;;;8.30;99.90;;;;;;4971741;28;20034;-60
2022/04/14 05:32:57;;;;;;;631.53;51.35;;;8.30;99.90;;;;;;4955729;28;20034;-60
2022/04/14 05:35:23;;;;;;;425.40;40.28;;;8.30;99.90;;;;;;4955947;28;20043;-60
2022/04/14 05:37:49;;;;;;;417.33;45.50;;;8.40;99.90;;;;;;4954937;29;20058;-60
2022/04/14 05:40:14;;;;;;;481.50;51.45;;;8.30;99.90;;;;;;4949863;28;20054;-60
2022/04/14 05:42:45;;;;;;;522.70;47.17;;;8.40;99.90;;;;;;4951127;28;20700;-60
2022/04/14 05:45:12;;;;;;;569.55;50.85;;;8.50;99.90;;;;;;4952375;28;20043;-60
2022/04/14 05:47:37;;;;;;;554.72;46.47;;;8.50;99.90;;;;;;4956284;28;20548;-60
2022/04/14 05:50:03;;;;;;;563.25;46.95;;;8.50;99.90;;;;;;4951491;28;20050;-62
2022/04/14 05:52:29;;;;;;;662.67;54.03;;;8.40;99.90;;;;;;4955131;28;20552;-63
2022/04/14 05:54:54;;;;;;;534.25;49.55;;;8.50;99.90;;;;;;4966737;28;20126;-62
2022/04/14 05:57:22;;;;;;;264.60;35.60;;;8.50;99.90;;;;;;4949074;28;20118;-61
2022/04/14 05:59:47;;;;;;;267.80;35.47;;;8.50;99.90;;;;;;4951395;28;20047;-61
2022/04/14 06:02:13;;;;;;;343.95;41.65;;;8.50;99.90;;;;;;4951211;28;20190;-61
2022/04/14 06:04:39;;;;;;;311.80;40.10;;;8.60;99.90;;;;;;4935615;28;20051;-62
2022/04/14 06:07:04;;;;;;;298.92;41.65;;;8.70;99.90;;;;;;4951934;28;20044;-61
2022/04/14 06:09:30;;;;;;;295.67;43.38;;;8.80;99.90;;;;;;4951884;28;20042;-62
2022/04/14 06:11:56;;;;;;;150.57;40.15;;;8.90;99.90;;;;;;4950137;28;20042;-60
2022/04/14 06:14:21;;;;;;;114.78;40.35;;;9.00;99.90;;;;;;4954611;28;20075;-61
2022/04/14 06:16:47;;;;;;;103.07;45.45;;;9.10;99.90;;;;;;4951513;28;20042;-62
2022/04/14 06:19:12;;;;;;;113.28;50.25;;;9.20;99.90;;;;;;4951896;29;20092;-61
2022/04/14 06:21:38;;;;;;;105.20;50.60;;;9.40;99.90;;;;;;4949419;28;20043;-62
2022/04/14 06:24:04;;;;;;;116.78;54.42;;;9.60;99.90;;;;;;4956040;28;20059;-60
2022/04/14 06:26:30;;;;;;;120.15;54.47;;;9.70;99.90;;;;;;4950956;28;20407;-61
2022/04/14 06:28:55;;;;;;;116.35;54.72;;;9.90;99.90;;;;;;4949274;28;20043;-62
2022/04/14 06:31:21;;;;;;;120.22;52.90;;;9.90;99.90;;;;;;4953295;28;20070;-62
2022/04/14 06:33:46;;;;;;;127.00;56.42;;;10.10;99.90;;;;;;4951484;28;20126;-61
2022/04/14 06:36:12;;;;;;;115.07;53.65;;;10.20;99.90;;;;;;4951183;28;20055;-60
2022/04/14 06:38:39;;;;;;;120.82;54.10;;;10.30;99.90;;;;;;4947507;28;20058;-59
2022/04/14 06:41:05;;;;;;;112.30;53.75;;;10.40;99.90;;;;;;4950674;28;20043;-60
2022/04/14 06:43:31;;;;;;;104.30;52.72;;;10.50;99.90;;;;;;4950285;28;20366;-60
2022/04/14 06:45:58;;;;;;;116.35;54.85;;;10.60;99.90;;;;;;4955632;28;20043;-60
2022/04/14 06:48:23;;;;;;;99.75;50.33;;;10.70;99.90;;;;;;4948416;28;20051;-60
2022/04/14 06:50:49;;;;;;;96.70;49.90;;;10.80;99.90;;;;;;4950558;28;20098;-60
2022/04/14 06:53:16;;;;;;;103.25;50.42;;;10.90;99.90;;;;;;4960219;28;20378;-60
2022/04/14 06:55:45;;;;;;;96.70;49.10;;;11.00;99.90;;;;;;4947181;28;20046;-62
2022/04/14 06:58:11;;;;;;;97.20;49.85;;;11.10;99.90;;;;;;4949804;28;20512;-60
2022/04/14 07:00:36;;;;;;;94.45;49.08;;;11.20;99.90;;;;;;4956611;28;20051;-60
2022/04/14 07:03:02;;;;;;;92.68;49.20;;;11.20;99.90;;;;;;4948928;28;20050;-62
2022/04/14 07:05:27;;;;;;;88.95;48.70;;;11.30;99.90;;;;;;4950349;28;20093;-60
2022/04/14 07:07:53;;;;;;;87.43;47.20;;;11.30;99.90;;;;;;4950805;29;20043;-62
2022/04/14 07:10:19;;;;;;;89.80;48.65;;;11.40;99.90;;;;;;4931991;28;20042;-60
2022/04/14 07:12:46;;;;;;;80.82;45.97;;;11.50;99.90;;;;;;4947915;28;20039;-62
2022/04/14 07:15:12;;;;;;;82.53;46.55;;;11.50;99.90;;;;;;4953561;28;20043;-62
2022/04/14 07:17:38;;;;;;;70.15;42.00;;;11.60;99.90;;;;;;4930827;28;20061;-62
2022/04/14 07:20:05;;;;;;;69.65;40.22;;;11.70;99.90;;;;;;4961017;28;20039;-59
2022/04/14 07:22:40;;;;;;;64.07;40.38;;;11.70;99.90;;;;;;4965874;28;20055;-59
2022/04/14 07:25:06;;;;;;;73.68;42.15;;;11.80;99.90;;;;;;4950821;29;20130;-55
2022/04/14 07:27:32;;;;;;;71.90;39.78;;;11.90;99.90;;;;;;4946329;28;20158;-59
2022/04/14 07:29:57;;;;;;;70.75;40.63;;;11.90;99.90;;;;;;4949913;28;20039;-60
2022/04/14 07:32:23;;;;;;;63.75;36.17;;;12.00;99.90;;;;;;4950204;28;20062;-60
2022/04/14 07:34:48;;;;;;;68.22;39.45;;;12.10;99.90;;;;;;4949792;29;20050;-61
2022/04/14 07:37:14;;;;;;;62.15;36.88;;;12.20;99.90;;;;;;4950832;28;20073;-60
2022/04/14 07:39:40;;;;;;;62.58;34.20;;;12.20;99.90;;;;;;4951732;28;20141;-61
2022/04/14 07:42:06;;;;;;;60.42;33.67;;;12.20;99.90;;;;;;4950528;29;20178;-61
2022/04/14 07:44:31;;;;;;;55.40;33.90;;;12.30;99.90;;;;;;4947552;28;20149;-61
2022/04/14 07:46:57;;;;;;;61.05;34.78;;;12.30;99.90;;;;;;4949578;28;20035;-60
2022/04/14 07:49:23;;;;;;;56.20;32.80;;;12.40;99.90;;;;;;4950174;28;20438;-61
2022/04/14 07:51:48;;;;;;;64.95;35.05;;;12.50;99.90;;;;;;4956218;28;20703;-60
2022/04/14 07:54:14;;;;;;;55.72;31.92;;;12.60;99.90;;;;;;4946590;28;20039;-60
2022/04/14 07:56:39;;;;;;;45.60;29.13;;;12.60;99.90;;;;;;4949543;28;20074;-61
2022/04/14 07:59:05;;;;;;;46.05;28.10;;;12.70;99.90;;;;;;4948941;29;20043;-61
2022/04/14 08:01:30;;;;;;;45.42;26.80;;;12.80;99.90;;;;;;4950989;28;20059;-60
2022/04/14 08:03:56;;;;;;;52.80;31.23;;;12.80;99.90;;;;;;4948379;28;20047;-61
2022/04/14 08:06:25;;;;;;;46.33;27.70;;;12.90;99.90;;;;;;4949963;28;20438;-61
2022/04/14 08:08:50;;;;;;;40.53;26.52;;;12.90;99.90;;;;;;4948440;28;20799;-61
2022/04/14 08:11:16;;;;;;;43.97;25.30;;;13.10;99.90;;;;;;4954708;28;20126;-61
2022/04/14 08:13:42;;;;;;;40.60;25.27;;;13.10;99.90;;;;;;4945095;28;21072;-61
2022/04/14 08:16:12;;;;;;;40.60;24.88;;;13.10;99.90;;;;;;4949163;28;20524;-60
2022/04/14 08:18:39;;;;;;;41.10;24.52;;;13.30;99.90;;;;;;4946794;28;20075;-61
2022/04/14 08:21:06;;;;;;;36.28;23.10;;;13.30;99.90;;;;;;4931685;29;20047;-61
2022/04/14 08:23:34;;;;;;;43.67;24.83;;;13.40;99.90;;;;;;4948658;29;20509;-61
2022/04/14 08:26:01;;;;;;;42.47;24.98;;;13.50;99.90;;;;;;4948677;28;20047;-61
2022/04/14 08:28:27;;;;;;;35.97;23.30;;;13.60;99.90;;;;;;4953086;28;20528;-61
2022/04/14 08:30:54;;;;;;;29.90;19.85;;;13.70;99.90;;;;;;4953246;28;20046;-61
2022/04/14 08:33:23;;;;;;;31.08;19.30;;;13.70;99.90;;;;;;4946554;28;20494;-61
2022/04/14 08:35:51;;;;;;;30.98;19.83;;;13.80;99.90;;;;;;4949836;28;20137;-61
2022/04/14 08:38:16;;;;;;;25.38;16.88;;;13.90;99.90;;;;;;4952610;28;20057;-60
2022/04/14 08:40:46;;;;;;;18.67;11.80;;;14.00;99.90;;;;;;4953107;28;20138;-61
2022/04/14 08:43:15;;;;;;;19.40;12.38;;;14.00;99.90;;;;;;4948567;28;20043;-61
2022/04/14 08:45:45;;;;;;;19.92;13.77;;;14.10;99.90;;;;;;4951832;28;20051;-61
2022/04/14 08:48:15;;;;;;;30.63;18.27;;;14.20;99.90;;;;;;4952699;28;20051;-61
2022/04/14 08:50:42;;;;;;;30.33;19.20;;;14.30;99.90;;;;;;4951002;28;20042;-61
2022/04/14 08:53:09;;;;;;;40.97;23.05;;;14.30;99.90;;;;;;4952057;28;20082;-60
2022/04/14 08:55:39;;;;;;;28.27;19.08;;;14.30;99.90;;;;;;4953051;28;20047;-61
2022/04/14 08:58:06;;;;;;;34.60;22.67;;;14.40;99.90;;;;;;4952355;29;20055;-60
2022/04/14 09:00:32;;;;;;;37.30;22.48;;;14.50;99.90;;;;;;4954344;28;20047;-61
2022/04/14 09:02:59;;;;;;;32.92;23.70;;;14.50;99.90;;;;;;4932367;28;20047;-61
2022/04/14 09:05:25;;;;;;;32.33;21.23;;;14.50;99.90;;;;;;4968752;28;20038;-61
2022/04/14 09:07:51;;;;;;;28.55;19.48;;;14.60;99.90;;;;;;4963405;28;20994;-61
2022/04/14 09:10:18;;;;;;;31.23;19.70;;;14.70;99.90;;;;;;4959874;28;20382;-61
2022/04/14 09:12:45;;;;;;;26.98;19.45;;;14.80;99.90;;;;;;4961112;28;20069;-61
2022/04/14 09:15:11;;;;;;;26.27;18.98;;;14.90;99.90;;;;;;4951692;28;20054;-61
2022/04/14 09:17:37;;;;;;;26.58;18.58;;;15.00;99.90;;;;;;4953566;28;20039;-61
2022/04/14 09:20:33;;;;;;;31.52;19.27;;;15.10;99.90;;;;;;4961124;28;20047;-61
2022/04/14 09:23:26;;;;;;;27.73;18.88;;;15.10;99.90;;;;;;4976091;23;20030;-62
2022/04/14 09:26:06;;;;;;;24.55;17.80;;;15.20;99.90;;;;;;4952782;28;20510;-62
2022/04/14 09:28:32;;;;;;;23.67;17.67;;;15.20;99.90;;;;;;4942514;29;20043;-62
2022/04/14 09:31:09;;;;;;;22.63;17.50;;;15.40;99.90;;;;;;4946941;28;20031;-63
2022/04/14 09:33:45;;;;;;;21.13;16.48;;;15.50;99.90;;;;;;4950832;29;20501;-63
2022/04/14 09:36:17;;;;;;;23.95;17.60;;;15.50;99.90;;;;;;4931602;29;20079;-62
2022/04/14 09:38:49;;;;;;;23.33;16.60;;;15.60;99.90;;;;;;4932066;29;20055;-61
2022/04/14 09:41:39;;;;;;;22.08;16.27;;;15.70;99.90;;;;;;4925553;29;20054;-61
2022/04/14 09:44:09;;;;;;;25.50;16.90;;;15.80;99.90;;;;;;4930123;29;20131;-64
2022/04/14 09:46:41;;;;;;;23.30;17.15;;;15.90;99.90;;;;;;4932948;29;20126;-61
2022/04/14 09:49:11;;;;;;;21.40;17.02;;;15.90;99.90;;;;;;4929694;29;20038;-62
2022/04/14 09:51:42;;;;;;;22.95;16.23;;;15.90;99.90;;;;;;4931817;29;20105;-62
2022/04/14 09:54:19;;;;;;;24.45;16.00;;;15.80;99.90;;;;;;4931132;29;20052;-62
2022/04/14 09:56:51;;;;;;;21.60;16.38;;;15.90;99.90;;;;;;4927552;29;20406;-61
2022/04/14 09:59:19;;;;;;;21.35;15.68;;;15.90;99.90;;;;;;4932218;29;20866;-63
2022/04/14 10:01:45;;;;;;;22.42;16.40;;;16.00;99.90;;;;;;4933561;29;20118;-58
2022/04/14 10:04:30;;;;;;;21.75;16.60;;;16.10;99.90;;;;;;4951655;29;20453;-63
2022/04/14 10:07:04;;;;;;;20.27;15.82;;;16.20;99.90;;;;;;4927807;29;20130;-61
2022/04/14 10:09:30;;;;;;;21.20;16.33;;;16.20;99.90;;;;;;4932046;29;20042;-63
2022/04/14 10:11:56;;;;;;;25.13;18.77;;;16.30;99.90;;;;;;4931302;29;20507;-61
2022/04/14 10:14:24;;;;;;;26.67;18.95;;;16.50;99.90;;;;;;4919401;29;20654;-60
2022/04/14 10:16:50;;;;;;;25.38;18.48;;;16.70;99.90;;;;;;4932186;29;20293;-62
2022/04/14 10:19:17;;;;;;;21.73;16.95;;;17.00;99.90;;;;;;4930187;29;20565;-61
2022/04/14 10:21:44;;;;;;;22.35;16.23;;;17.20;99.90;;;;;;4929199;29;20410;-63
2022/04/14 10:24:11;;;;;;;24.70;17.27;;;17.30;99.90;;;;;;4924418;29;20051;-62
2022/04/14 10:26:37;;;;;;;22.83;16.52;;;17.10;99.90;;;;;;4931851;29;20075;-62
2022/04/14 10:29:06;;;;;;;23.42;17.60;;;17.00;99.90;;;;;;4929802;29;20086;-61
2022/04/14 10:31:35;;;;;;;21.42;15.65;;;16.90;99.90;;;;;;4902154;29;20518;-62
2022/04/14 10:34:07;;;;;;;18.50;13.75;;;16.90;99.90;;;;;;4928717;29;20048;-62
2022/04/14 10:36:38;;;;;;;21.27;15.35;;;17.00;99.90;;;;;;4931782;29;20138;-61
2022/04/14 10:39:05;;;;;;;18.92;14.35;;;16.80;99.90;;;;;;4929426;29;20071;-63
2022/04/14 10:41:35;;;;;;;18.15;13.23;;;16.70;99.90;;;;;;4931369;29;20043;-60
2022/04/14 10:44:02;;;;;;;15.25;12.35;;;16.70;99.90;;;;;;4925715;29;20054;-62
2022/04/14 10:46:40;;;;;;;13.73;10.88;;;16.70;99.90;;;;;;4930445;29;20074;-58
2022/04/14 10:49:17;;;;;;;15.75;11.10;;;16.70;99.90;;;;;;4930354;29;20068;-63
2022/04/14 10:51:43;;;;;;;15.75;10.68;;;16.60;99.90;;;;;;4931372;29;20040;-62
2022/04/14 10:54:10;;;;;;;14.13;10.18;;;16.80;99.90;;;;;;4931542;29;20122;-60
2022/04/14 10:56:42;;;;;;;17.08;11.60;;;17.10;99.90;;;;;;4928833;29;20086;-61
2022/04/14 10:59:19;;;;;;;17.00;13.30;;;17.00;99.90;;;;;;4916940;29;20053;-62
2022/04/14 11:01:50;;;;;;;16.45;11.45;;;17.00;99.90;;;;;;4931678;29;20048;-62
2022/04/14 11:04:25;;;;;;;;;;;17.20;99.90;;;;;;4932980;29;20054;-62
2022/04/14 11:06:54;;;;;;;17.45;11.40;;;17.10;99.90;;;;;;4931178;29;19927;-62
2022/04/14 11:09:38;;;;;;;15.98;11.60;;;17.10;99.90;;;;;;4931685;29;20585;-62
2022/04/14 11:12:05;;;;;;;14.95;11.85;;;17.20;99.90;;;;;;4931143;29;20140;-62
2022/04/14 11:14:35;;;;;;;18.23;13.70;;;17.50;99.90;;;;;;4929578;29;20043;-61
2022/04/14 11:17:03;;;;;;;17.42;12.23;;;17.70;99.90;;;;;;4929351;29;20035;-63
2022/04/14 11:19:29;;;;;;;15.48;12.13;;;17.60;99.90;;;;;;4930429;29;20410;-62
2022/04/14 11:22:08;;;;;;;21.77;12.73;;;17.50;99.90;;;;;;4929018;29;20058;-63
2022/04/14 11:24:37;;;;;;;17.45;11.68;;;17.40;99.90;;;;;;4928672;29;20046;-61
2022/04/14 11:27:22;;;;;;;15.45;11.60;;;17.30;99.90;;;;;;4928147;29;20035;-62
2022/04/14 11:29:49;;;;;;;12.38;9.32;;;17.50;99.90;;;;;;4909200;29;20042;-63
2022/04/14 11:32:34;;;;;;;12.45;8.25;;;17.30;99.90;;;;;;4929712;29;20047;-61
2022/04/14 11:35:18;;;;;;;12.75;7.35;;;17.20;99.90;;;;;;4929251;29;20044;-62
2022/04/14 11:37:45;;;;;;;9.20;6.80;;;17.40;99.90;;;;;;4909084;29;20052;-62
2022/04/14 11:40:11;;;;;;;12.90;6.93;;;17.40;99.90;;;;;;4927514;29;20070;-61
2022/04/14 11:42:37;;;;;;;9.73;7.20;;;17.50;99.90;;;;;;4930211;29;20157;-62
2022/04/14 11:45:03;;;;;;;11.70;7.80;;;17.70;99.90;;;;;;4930014;29;20043;-61
2022/04/14 11:47:29;;;;;;;10.63;7.38;;;17.90;99.90;;;;;;4927302;29;20047;-61
2022/04/14 11:49:55;;;;;;;10.98;6.72;;;18.10;99.90;;;;;;4929998;29;20040;-62
2022/04/14 11:52:22;;;;;;;10.65;6.75;;;18.50;99.90;;;;;;4930459;29;20058;-63
2022/04/14 11:54:49;;;;;;;9.32;6.68;;;18.60;99.90;;;;;;4917102;29;20052;-62
2022/04/14 11:57:20;;;;;;;9.02;5.38;;;18.40;99.90;;;;;;4930127;29;20144;-62
2022/04/14 11:59:47;;;;;;;7.72;4.90;;;18.10;99.90;;;;;;4926555;29;20054;-61
2022/04/14 12:02:21;;;;;;;8.85;4.88;;;17.90;99.90;;;;;;4928573;29;20469;-61
2022/04/14 12:04:52;;;;;;;6.88;5.05;;;18.10;99.90;;;;;;4921879;29;20056;-61
2022/04/14 12:07:19;;;;;;;6.75;5.05;;;18.00;99.90;;;;;;4926995;29;20044;-58
2022/04/14 12:09:45;;;;;;;10.65;5.88;;;18.00;99.90;;;;;;4938523;29;20798;-60
2022/04/14 12:12:16;;;;;;;10.90;6.20;;;18.10;99.90;;;;;;4927062;29;20072;-61
2022/04/14 12:14:48;;;;;;;8.60;4.70;;;18.20;99.90;;;;;;4926883;29;20062;-61
2022/04/14 12:17:16;;;;;;;8.82;4.50;;;18.30;99.90;;;;;;4929702;29;20414;-62
2022/04/14 12:19:55;;;;;;;10.35;5.45;;;18.40;99.90;;;;;;4929951;29;20694;-62
2022/04/14 12:22:23;;;;;;;8.85;5.32;;;18.50;99.90;;;;;;4916743;29;20667;-60
2022/04/14 12:24:54;;;;;;;9.55;6.03;;;18.60;99.90;;;;;;4924997;29;20044;-61
2022/04/14 12:27:24;;;;;;;9.30;5.63;;;18.90;99.90;;;;;;4926415;29;20998;-62
2022/04/14 12:29:51;;;;;;;11.63;6.47;;;19.20;99.90;;;;;;4927017;29;20396;-63